createdAt,value
2023-04-14T00:01:05.694Z,7.63
2023-04-14T00:04:10.619Z,7.80
2023-04-14T00:07:13.947Z,7.75
2023-04-14T00:10:16.454Z,7.72
2023-04-14T00:13:18.921Z,7.46
2023-04-14T00:16:21.974Z,7.71
2023-04-14T00:19:24.647Z,7.71
2023-04-14T00:22:27.202Z,7.60
2023-04-14T00:25:29.563Z,7.49
2023-04-14T00:28:31.983Z,7.61
2023-04-14T00:31:34.395Z,7.50
2023-04-14T00:34:36.788Z,7.55
2023-04-14T00:37:40.104Z,7.53
2023-04-14T00:40:42.461Z,7.59
2023-04-14T00:43:44.780Z,7.67
2023-04-14T00:46:47.595Z,7.65
2023-04-14T00:49:51.113Z,7.50
2023-04-14T00:52:53.885Z,7.56
2023-04-14T00:55:56.866Z,7.57
2023-04-14T00:59:01.586Z,7.50
2023-04-14T01:02:04.379Z,7.54
2023-04-14T01:05:08.261Z,7.46
2023-04-14T01:08:10.710Z,7.37
2023-04-14T01:11:21.941Z,7.42
2023-04-14T01:14:51.089Z,7.46
2023-04-14T01:18:08.335Z,7.47
2023-04-14T01:21:14.371Z,7.47
2023-04-14T01:24:41.693Z,7.36
2023-04-14T01:27:58.821Z,7.42
2023-04-14T01:31:28.560Z,7.44
2023-04-14T01:34:46.157Z,7.46
2023-04-14T01:37:52.902Z,7.50
2023-04-14T01:40:58.602Z,7.42
2023-04-14T01:44:02.538Z,7.46
2023-04-14T01:47:07.218Z,7.44
2023-04-14T01:50:12.348Z,7.50
2023-04-14T01:53:17.826Z,7.44
2023-04-14T01:56:21.490Z,7.35
2023-04-14T01:59:25.469Z,7.44
2023-04-14T02:02:28.405Z,7.37
2023-04-14T02:05:31.618Z,7.36
2023-04-14T02:08:34.908Z,7.38
2023-04-14T02:11:37.320Z,7.37
2023-04-14T02:14:42.032Z,7.23
2023-04-14T02:17:45.234Z,7.17
2023-04-14T02:20:48.541Z,7.07
2023-04-14T02:23:50.968Z,6.93
2023-04-14T02:27:11.342Z,6.79
2023-04-14T02:30:15.845Z,6.53
2023-04-14T02:33:22.868Z,6.59
2023-04-14T02:36:32.637Z,6.64
2023-04-14T02:39:41.416Z,6.50
2023-04-14T02:42:46.865Z,6.44
2023-04-14T02:45:51.658Z,6.36
2023-04-14T02:48:55.342Z,6.30
2023-04-14T02:51:58.549Z,6.33
2023-04-14T02:55:02.413Z,6.47
2023-04-14T02:58:05.459Z,6.63
2023-04-14T03:01:11.756Z,6.72
2023-04-14T03:04:16.147Z,6.75
2023-04-14T03:07:20.480Z,6.82
2023-04-14T03:10:24.968Z,6.81
2023-04-14T03:13:29.054Z,6.88
2023-04-14T03:16:32.699Z,6.84
2023-04-14T03:19:36.524Z,6.83
2023-04-14T03:22:41.824Z,6.97
2023-04-14T03:25:48.219Z,7.01
2023-04-14T03:28:58.040Z,7.00
2023-04-14T03:32:01.880Z,7.10
2023-04-14T03:35:05.039Z,7.12
2023-04-14T03:38:09.920Z,7.06
2023-04-14T03:41:12.722Z,7.01
2023-04-14T03:44:17.616Z,7.07
2023-04-14T03:47:31.563Z,7.09
2023-04-14T03:50:37.433Z,7.06
2023-04-14T03:53:41.985Z,7.03
2023-04-14T03:56:46.360Z,6.98
2023-04-14T03:59:50.780Z,6.89
2023-04-14T04:02:58.150Z,7.07
2023-04-14T04:06:00.854Z,7.07
2023-04-14T04:09:04.006Z,7.10
2023-04-14T04:12:07.452Z,7.06
2023-04-14T04:15:10.846Z,7.03
2023-04-14T04:18:17.485Z,7.12
2023-04-14T04:21:21.304Z,7.04
2023-04-14T04:24:26.630Z,7.18
2023-04-14T04:27:29.409Z,7.13
2023-04-14T04:30:41.612Z,7.08
2023-04-14T04:33:46.786Z,6.91
2023-04-14T04:36:50.656Z,7.15
2023-04-14T04:39:53.305Z,7.23
2023-04-14T04:42:55.945Z,7.24
2023-04-14T04:46:17.111Z,7.43
2023-04-14T04:49:20.931Z,7.91
2023-04-14T04:52:23.339Z,8.38
2023-04-14T04:55:26.347Z,8.66
2023-04-14T04:58:28.783Z,8.78
2023-04-14T05:01:31.346Z,8.76
2023-04-14T05:04:33.918Z,8.84
2023-04-14T05:07:36.375Z,9.37
2023-04-14T05:10:38.800Z,9.56
2023-04-14T05:13:41.531Z,9.75
2023-04-14T05:16:43.895Z,9.65
2023-04-14T05:19:46.439Z,10.06
2023-04-14T05:22:48.774Z,10.30
2023-04-14T05:25:51.383Z,10.46
2023-04-14T05:28:53.891Z,10.58
2023-04-14T05:31:56.235Z,10.76
2023-04-14T05:34:58.613Z,10.84
2023-04-14T05:38:00.964Z,10.88
2023-04-14T05:41:03.386Z,10.97
2023-04-14T05:44:05.807Z,11.40
2023-04-14T05:47:08.272Z,11.19
2023-04-14T05:50:11.318Z,11.33
2023-04-14T05:53:13.938Z,11.86
2023-04-14T05:56:16.398Z,12.00
2023-04-14T05:59:18.770Z,11.72
2023-04-14T06:02:21.235Z,11.87
2023-04-14T06:05:24.558Z,11.73
2023-04-14T06:08:26.967Z,11.86
2023-04-14T06:11:29.259Z,11.56
2023-04-14T06:14:31.625Z,11.46
2023-04-14T06:17:35.577Z,11.41
2023-04-14T06:20:38.074Z,11.27
2023-04-14T06:23:40.704Z,11.52
2023-04-14T06:26:43.287Z,11.71
2023-04-14T06:29:45.653Z,11.67
2023-04-14T06:32:51.605Z,11.46
2023-04-14T06:35:54.922Z,11.41
2023-04-14T06:38:58.004Z,11.34
2023-04-14T06:42:01.037Z,11.08
2023-04-14T06:45:04.754Z,11.19
2023-04-14T06:48:08.051Z,10.98
2023-04-14T06:51:12.419Z,11.08
2023-04-14T06:54:14.797Z,10.86
2023-04-14T06:57:17.122Z,10.45
2023-04-14T07:00:19.709Z,9.87
2023-04-14T07:03:22.064Z,9.48
2023-04-14T07:06:25.052Z,9.58
2023-04-14T07:09:28.450Z,9.72
2023-04-14T07:12:30.776Z,9.62
2023-04-14T07:15:33.269Z,9.76
2023-04-14T07:18:36.624Z,9.72
2023-04-14T07:21:38.931Z,9.44
2023-04-14T07:24:41.647Z,10.07
2023-04-14T07:27:56.201Z,9.94
2023-04-14T07:31:09.427Z,9.98
2023-04-14T07:34:11.811Z,10.09
2023-04-14T07:37:14.128Z,9.99
2023-04-14T07:40:17.118Z,9.82
2023-04-14T07:43:19.441Z,9.70
2023-04-14T07:46:22.255Z,9.89
2023-04-14T07:49:24.690Z,10.15
2023-04-14T07:52:27.111Z,10.29
2023-04-14T07:55:29.537Z,10.39
2023-04-14T07:58:31.932Z,10.10
2023-04-14T08:01:34.260Z,10.34
2023-04-14T08:04:37.067Z,10.47
2023-04-14T08:07:39.672Z,10.57
2023-04-14T08:10:42.720Z,11.32
2023-04-14T08:13:46.222Z,11.46
2023-04-14T08:16:48.746Z,11.79
2023-04-14T08:19:51.328Z,11.91
2023-04-14T08:22:53.911Z,11.70
2023-04-14T08:25:57.870Z,11.99
2023-04-14T08:29:00.401Z,12.14
2023-04-14T08:32:02.981Z,12.21
2023-04-14T08:35:39.930Z,12.03
2023-04-14T08:38:29.623Z,12.10
2023-04-14T08:41:34.562Z,11.97
2023-04-14T08:44:37.490Z,12.18
2023-04-14T08:47:41.401Z,12.33
2023-04-14T08:50:56.898Z,12.07
2023-04-14T08:53:59.997Z,12.04
2023-04-14T08:57:03.734Z,12.19
2023-04-14T09:00:07.078Z,11.99
2023-04-14T09:03:09.912Z,12.37
2023-04-14T09:06:13.377Z,12.12
2023-04-14T09:09:16.042Z,11.93
2023-04-14T09:12:18.723Z,12.29
2023-04-14T09:15:21.853Z,12.31
2023-04-14T09:18:25.762Z,12.24
2023-04-14T09:21:51.630Z,12.25
2023-04-14T09:24:53.404Z,12.11
2023-04-14T09:27:55.929Z,12.45
2023-04-14T09:30:58.479Z,12.67
2023-04-14T09:34:01.262Z,12.48
2023-04-14T09:37:08.065Z,12.71
2023-04-14T09:40:12.034Z,12.80
2023-04-14T09:43:26.028Z,12.43
2023-04-14T09:46:28.464Z,12.47
2023-04-14T09:49:31.196Z,12.67
2023-04-14T09:52:41.501Z,12.79
2023-04-14T09:55:46.406Z,12.52
2023-04-14T09:58:50.541Z,12.74
2023-04-14T10:01:52.983Z,12.86
2023-04-14T10:05:05.529Z,13.11
2023-04-14T10:08:07.940Z,13.24
2023-04-14T10:11:23.116Z,13.49
2023-04-14T10:14:25.809Z,13.41
2023-04-14T10:17:29.916Z,13.60
2023-04-14T10:20:34.020Z,13.40
2023-04-14T10:23:41.451Z,13.57
2023-04-14T10:26:47.300Z,12.99
2023-04-14T10:29:49.893Z,13.23
2023-04-14T10:32:52.466Z,13.32
2023-04-14T10:36:01.990Z,13.52
2023-04-14T10:39:05.859Z,13.74
2023-04-14T10:42:08.152Z,13.45
2023-04-14T10:45:12.871Z,13.68
2023-04-14T10:48:15.306Z,13.47
2023-04-14T10:51:18.575Z,12.87
2023-04-14T10:54:21.257Z,12.83
2023-04-14T10:57:25.029Z,12.91
2023-04-14T11:00:30.190Z,13.28
2023-04-14T11:03:32.798Z,12.90
2023-04-14T11:06:47.585Z,12.98
2023-04-14T11:09:49.852Z,12.86
2023-04-14T11:12:59.392Z,13.13
2023-04-14T11:16:01.632Z,13.13
2023-04-14T11:19:04.049Z,12.77
2023-04-14T11:22:06.934Z,13.01
2023-04-14T11:25:12.676Z,13.25
2023-04-14T11:28:15.164Z,12.74
2023-04-14T11:31:19.299Z,12.48
2023-04-14T11:34:28.453Z,12.78
2023-04-14T11:37:30.820Z,12.81
2023-04-14T11:40:35.977Z,12.59
2023-04-14T11:43:39.225Z,12.55
2023-04-14T11:46:41.787Z,13.26
2023-04-14T11:49:44.318Z,13.22
2023-04-14T11:52:47.753Z,12.74
2023-04-14T11:55:52.045Z,13.20
2023-04-14T11:59:05.479Z,13.40
2023-04-14T12:02:12.522Z,13.19
2023-04-14T12:05:21.201Z,13.38
2023-04-14T12:08:24.249Z,13.35
2023-04-14T12:11:26.621Z,13.70
2023-04-14T12:14:29.041Z,13.46
2023-04-14T12:17:31.794Z,13.29
2023-04-14T12:20:56.370Z,13.86
2023-04-14T12:23:58.956Z,14.20
2023-04-14T12:27:02.128Z,14.67
2023-04-14T12:30:09.567Z,14.13
2023-04-14T12:33:12.723Z,14.95
2023-04-14T12:36:15.801Z,14.74
2023-04-14T12:39:18.177Z,14.76
2023-04-14T12:42:20.736Z,14.55
2023-04-14T12:45:23.019Z,14.61
2023-04-14T12:48:46.148Z,14.48
2023-04-14T12:51:48.534Z,14.34
2023-04-14T12:54:54.311Z,14.17
2023-04-14T12:57:59.959Z,14.19
2023-04-14T13:01:02.594Z,14.62
2023-04-14T13:04:06.676Z,14.42
2023-04-14T13:07:09.296Z,14.58
2023-04-14T13:10:12.091Z,14.65
2023-04-14T13:13:14.415Z,14.40
2023-04-14T13:16:18.561Z,14.53
2023-04-14T13:19:23.303Z,14.15
2023-04-14T13:22:25.911Z,14.35
2023-04-14T13:25:28.235Z,14.88
2023-04-14T13:28:30.645Z,14.67
2023-04-14T13:31:33.144Z,15.18
2023-04-14T13:34:35.420Z,15.35
2023-04-14T13:37:38.686Z,15.60
2023-04-14T13:40:41.047Z,15.67
2023-04-14T13:43:43.412Z,15.74
2023-04-14T13:46:45.972Z,15.59
2023-04-14T13:49:48.455Z,16.16
2023-04-14T13:52:50.859Z,15.77
2023-04-14T13:55:53.253Z,15.36
2023-04-14T13:58:55.725Z,15.19
2023-04-14T14:01:58.292Z,15.32
2023-04-14T14:05:00.899Z,15.46
2023-04-14T14:08:03.441Z,15.78
2023-04-14T14:11:10.798Z,15.80
2023-04-14T14:14:13.111Z,15.75
2023-04-14T14:17:15.399Z,15.68
2023-04-14T14:20:17.848Z,15.11
2023-04-14T14:23:20.249Z,14.96
2023-04-14T14:26:22.568Z,15.40
2023-04-14T14:29:24.932Z,15.36
2023-04-14T14:32:27.419Z,15.83
2023-04-14T14:35:29.774Z,15.53
2023-04-14T14:38:32.534Z,15.60
2023-04-14T14:41:35.024Z,15.61
2023-04-14T14:44:38.475Z,15.75
2023-04-14T14:47:41.548Z,15.46
2023-04-14T14:50:43.930Z,15.43
2023-04-14T14:53:46.216Z,15.46
2023-04-14T14:56:48.522Z,15.39
2023-04-14T14:59:50.938Z,15.42
2023-04-14T15:02:53.619Z,15.35
2023-04-14T15:05:56.368Z,15.41
2023-04-14T15:08:58.944Z,15.50
2023-04-14T15:12:01.324Z,15.82
2023-04-14T15:15:05.216Z,15.87
2023-04-14T15:18:07.821Z,15.48
2023-04-14T15:21:10.122Z,15.51
2023-04-14T15:24:12.600Z,15.37
2023-04-14T15:27:14.952Z,15.15
2023-04-14T15:30:17.314Z,14.94
2023-04-14T15:33:19.672Z,14.96
2023-04-14T15:36:22.479Z,14.81
2023-04-14T15:39:24.871Z,14.67
2023-04-14T15:42:27.483Z,14.60
2023-04-14T15:45:29.861Z,14.51
2023-04-14T15:48:32.129Z,14.00
2023-04-14T15:51:34.486Z,14.18
2023-04-14T15:54:37.413Z,14.06
2023-04-14T15:57:39.848Z,14.33
2023-04-14T16:00:42.704Z,14.28
2023-04-14T16:03:45.298Z,14.26
2023-04-14T16:06:47.871Z,14.24
2023-04-14T16:09:50.274Z,14.41
2023-04-14T16:12:52.831Z,14.42
2023-04-14T16:15:55.436Z,14.71
2023-04-14T16:18:57.821Z,14.73
2023-04-14T16:22:00.728Z,13.89
2023-04-14T16:25:04.622Z,13.69
2023-04-14T16:28:06.958Z,13.34
2023-04-14T16:31:09.328Z,13.29
2023-04-14T16:34:11.922Z,13.17
2023-04-14T16:37:14.434Z,13.08
2023-04-14T16:40:16.926Z,13.18
2023-04-14T16:43:19.262Z,13.09
2023-04-14T16:46:22.140Z,13.03
2023-04-14T16:49:25.606Z,13.11
2023-04-14T16:52:27.882Z,12.76
2023-04-14T16:55:30.115Z,12.79
2023-04-14T16:58:32.600Z,12.81
2023-04-14T17:01:35.130Z,12.84
2023-04-14T17:04:37.750Z,13.04
2023-04-14T17:07:40.885Z,13.01
2023-04-14T17:10:44.020Z,13.01
2023-04-14T17:13:46.406Z,12.89
2023-04-14T17:16:48.794Z,12.78
2023-04-14T17:19:51.565Z,12.54
2023-04-14T17:22:54.549Z,12.83
2023-04-14T17:25:57.811Z,12.71
2023-04-14T17:29:00.491Z,12.46
2023-04-14T17:32:03.173Z,12.41
2023-04-14T17:35:06.303Z,12.44
2023-04-14T17:38:08.698Z,12.28
2023-04-14T17:41:12.744Z,12.27
2023-04-14T17:44:15.705Z,12.25
2023-04-14T17:47:21.413Z,12.05
2023-04-14T17:50:24.893Z,11.99
2023-04-14T17:53:27.689Z,11.74
2023-04-14T17:56:31.473Z,11.70
2023-04-14T17:59:33.873Z,11.57
2023-04-14T18:02:38.517Z,11.51
2023-04-14T18:05:41.266Z,11.51
2023-04-14T18:08:43.761Z,11.32
2023-04-14T18:11:46.427Z,11.17
2023-04-14T18:14:53.364Z,11.09
2023-04-14T18:17:56.436Z,11.05
2023-04-14T18:20:59.100Z,11.04
2023-04-14T18:30:12.842Z,10.76
2023-04-14T18:33:15.110Z,10.65
2023-04-14T18:36:17.647Z,10.65
2023-04-14T18:39:20.053Z,10.28
2023-04-14T18:42:23.023Z,10.42
2023-04-14T18:45:25.424Z,10.59
2023-04-14T18:48:28.826Z,10.53
2023-04-14T18:51:31.724Z,10.43
2023-04-14T18:54:34.071Z,10.50
2023-04-14T18:57:36.408Z,10.44
2023-04-14T19:00:39.958Z,10.27
2023-04-14T19:03:42.358Z,10.29
2023-04-14T19:06:44.698Z,10.10
2023-04-14T19:09:47.133Z,10.24
2023-04-14T19:12:49.653Z,10.20
2023-04-14T19:15:53.052Z,10.14
2023-04-14T19:18:55.741Z,10.09
2023-04-14T19:21:58.144Z,10.00
2023-04-14T19:25:01.056Z,9.77
2023-04-14T19:28:03.381Z,9.93
2023-04-14T19:31:06.370Z,9.82
2023-04-14T19:34:09.001Z,9.90
2023-04-14T19:37:12.061Z,9.71
2023-04-14T19:40:14.680Z,9.75
2023-04-14T19:43:18.707Z,9.66
2023-04-14T19:46:21.129Z,9.65
2023-04-14T19:49:23.876Z,9.51
2023-04-14T19:52:27.186Z,9.58
2023-04-14T19:55:30.185Z,9.57
2023-04-14T19:58:33.004Z,9.55
2023-04-14T20:01:35.520Z,9.50
2023-04-14T20:04:38.115Z,9.49
2023-04-14T20:07:40.849Z,9.44
2023-04-14T20:10:43.964Z,9.26
2023-04-14T20:13:46.283Z,9.44
2023-04-14T20:16:48.890Z,9.48
2023-04-14T20:19:51.409Z,9.49
2023-04-14T20:22:55.651Z,9.47
2023-04-14T20:25:58.081Z,9.43
2023-04-14T20:29:00.626Z,9.48
2023-04-14T20:32:04.423Z,9.41
2023-04-14T20:35:06.981Z,9.38
2023-04-14T20:38:09.562Z,9.18
2023-04-14T20:41:12.368Z,9.21
2023-04-14T20:44:14.850Z,9.26
2023-04-14T20:47:18.249Z,9.36
2023-04-14T20:50:20.571Z,9.28
2023-04-14T20:53:26.755Z,9.32
2023-04-14T20:56:30.975Z,9.51
2023-04-14T20:59:33.540Z,9.79
2023-04-14T21:02:36.289Z,9.55
2023-04-14T21:05:38.724Z,9.49
2023-04-14T21:08:41.112Z,9.50
2023-04-14T21:11:43.499Z,9.56
2023-04-14T21:15:40.330Z,9.59
2023-04-14T21:18:09.813Z,9.77
2023-04-14T21:21:13.091Z,9.79
2023-04-14T21:24:15.462Z,9.81
2023-04-14T21:27:17.919Z,9.83
2023-04-14T21:30:20.325Z,9.78
2023-04-14T21:33:22.720Z,9.87
2023-04-14T21:36:25.240Z,10.04
2023-04-14T21:39:29.908Z,10.11
2023-04-14T21:42:32.535Z,10.02
2023-04-14T21:45:34.883Z,10.02
2023-04-14T21:48:37.561Z,10.16
2023-04-14T21:51:39.817Z,10.18
2023-04-14T21:54:44.744Z,10.11
2023-04-14T21:57:49.685Z,10.03
2023-04-14T22:00:53.783Z,10.08
2023-04-14T22:03:56.386Z,10.15
2023-04-14T22:06:58.799Z,10.22
2023-04-14T22:10:02.276Z,10.16
2023-04-14T22:13:04.671Z,10.13
2023-04-14T22:16:07.509Z,10.08
2023-04-14T22:19:10.475Z,10.07
2023-04-14T22:22:12.796Z,10.02
2023-04-14T22:25:15.395Z,9.89
2023-04-14T22:28:17.739Z,9.98
2023-04-14T22:31:20.241Z,9.90
2023-04-14T22:34:22.736Z,9.88
2023-04-14T22:37:25.114Z,9.65
2023-04-14T22:40:27.556Z,9.61
2023-04-14T22:43:30.219Z,9.60
2023-04-14T22:46:33.852Z,9.43
2023-04-14T22:49:36.495Z,9.27
2023-04-14T22:52:38.797Z,9.21
2023-04-14T22:55:41.111Z,9.23
2023-04-14T22:58:43.663Z,9.13
2023-04-14T23:01:46.076Z,9.06
2023-04-14T23:04:48.550Z,9.10
2023-04-14T23:07:51.219Z,9.08
2023-04-14T23:10:54.252Z,8.94
2023-04-14T23:13:56.838Z,9.02
2023-04-14T23:17:02.374Z,9.08
2023-04-14T23:20:04.972Z,9.12
2023-04-14T23:23:12.473Z,8.99
2023-04-14T23:26:14.866Z,9.11
2023-04-14T23:29:17.127Z,9.15
2023-04-14T23:32:19.515Z,9.21
2023-04-14T23:35:21.888Z,9.24
2023-04-14T23:38:24.313Z,9.33
2023-04-14T23:41:26.744Z,9.38
2023-04-14T23:44:29.205Z,9.35
2023-04-14T23:47:32.124Z,9.28
2023-04-14T23:51:00.273Z,9.22
2023-04-14T23:53:59.511Z,9.30
2023-04-14T23:57:01.890Z,9.04
